Time;durP1;ratioP1;P1;durP2;ratioP2;P2;SDS_P1;SDS_P2;PMS_P1;PMS_P2;Temp;Humidity;BMP_temperature;BMP_pressure;BME280_temperature;BME280_humidity;BME280_pressure;Samples;Min_cycle;Max_cycle;Signal;HPM_P1;HPM_P2
2021/11/15 00:02:20;;;;;;;5.70;4.40;;;;;;;20.92;57.38;97994.25;4970358;28;20692;-66
2021/11/15 00:04:47;;;;;;;7.50;4.17;;;;;;;20.92;57.68;97991.69;4954522;28;20203;-69
2021/11/15 00:07:14;;;;;;;7.20;4.63;;;;;;;20.92;57.60;97989.13;4986181;28;20273;-66
2021/11/15 00:09:42;;;;;;;8.13;4.77;;;;;;;20.87;57.67;97977.91;4955091;28;20217;-67
2021/11/15 00:12:10;;;;;;;6.13;4.43;;;;;;;20.91;57.76;97987.41;4969666;28;20210;-65
2021/11/15 00:14:37;;;;;;;7.57;4.73;;;;;;;20.91;57.77;97985.75;4954944;28;20211;-67
2021/11/15 00:17:04;;;;;;;9.17;5.00;;;;;;;20.85;57.81;97970.16;4971110;28;20253;-66
2021/11/15 00:19:31;;;;;;;5.20;3.83;;;;;;;20.91;58.19;97980.63;4970820;28;20273;-65
2021/11/15 00:21:59;;;;;;;10.97;4.87;;;;;;;20.91;57.83;97980.63;4954329;28;20664;-69
2021/11/15 00:24:25;;;;;;;7.60;4.47;;;;;;;20.75;57.74;97949.31;4967779;28;20266;-66
2021/11/15 00:26:52;;;;;;;6.50;4.80;;;;;;;20.88;57.85;97971.97;4969201;28;20292;-69
2021/11/15 00:29:18;;;;;;;7.87;4.80;;;;;;;20.91;57.94;97975.50;4953747;28;20235;-65
2021/11/15 00:31:45;;;;;;;7.20;4.63;;;;;;;20.48;57.97;97903.13;4955282;28;20265;-68
2021/11/15 00:34:12;;;;;;;5.03;4.17;;;;;;;20.92;58.18;97979.81;4950711;28;20219;-65
2021/11/15 00:36:38;;;;;;;7.27;4.50;;;;;;;20.78;58.05;97952.84;4968680;28;20277;-68
2021/11/15 00:39:05;;;;;;;6.07;4.30;;;;;;;20.87;58.20;97973.63;4953970;28;20270;-67
2021/11/15 00:41:32;;;;;;;7.80;5.03;;;;;;;20.65;58.24;97929.31;4969715;28;20382;-66
2021/11/15 00:43:59;;;;;;;6.47;4.70;;;;;;;20.91;58.23;97980.63;4954754;28;20219;-66
2021/11/15 00:46:25;;;;;;;6.83;4.83;;;;;;;20.92;57.93;97979.81;4953891;28;20762;-67
2021/11/15 00:48:55;;;;;;;8.83;5.10;;;;;;;20.93;58.30;97981.53;4969988;28;20274;-66
2021/11/15 00:51:26;;;;;;;6.00;4.67;;;;;;;20.77;58.03;97953.66;4955457;28;20558;-69
2021/11/15 00:53:53;;;;;;;6.03;4.50;;;;;;;20.57;58.14;97917.94;4969321;28;20211;-66
2021/11/15 00:56:20;;;;;;;8.97;4.77;;;;;;;19.99;58.05;97826.25;4953926;28;20758;-67
2021/11/15 00:58:46;;;;;;;8.03;5.20;;;;;;;20.93;58.38;97984.09;4969040;28;20910;-65
2021/11/15 01:01:13;;;;;;;5.73;4.23;;;;;;;20.89;58.39;97968.59;4954450;28;20241;-67
2021/11/15 01:03:40;;;;;;;7.90;5.43;;;;;;;20.93;58.03;97981.53;4953447;28;20294;-67
2021/11/15 01:06:07;;;;;;;9.17;5.30;;;;;;;20.80;58.44;97958.88;4968595;28;20238;-66
2021/11/15 01:08:33;;;;;;;6.63;4.57;;;;;;;20.90;58.41;97971.19;4956969;28;20254;-70
2021/11/15 01:11:00;;;;;;;5.13;4.40;;;;;;;20.81;58.62;97959.78;4973007;28;20210;-68
2021/11/15 01:13:27;;;;;;;7.17;5.17;;;;;;;20.24;58.65;97862.97;4957749;28;20733;-67
2021/11/15 01:15:54;;;;;;;6.90;4.70;;;;;;;20.74;58.57;97951.00;4971223;28;20224;-65
2021/11/15 01:18:20;;;;;;;8.33;5.23;;;;;;;20.92;58.60;97987.47;4957535;28;20227;-67
2021/11/15 01:20:47;;;;;;;7.33;5.17;;;;;;;20.87;58.43;97976.19;4956752;28;20785;-69
2021/11/15 01:23:14;;;;;;;5.43;4.80;;;;;;;20.92;58.40;97984.03;4957141;28;20627;-66
2021/11/15 01:25:41;;;;;;;8.53;5.10;;;;;;;20.87;58.58;97977.91;4957652;28;20277;-66
2021/11/15 01:28:08;;;;;;;8.73;5.13;;;;;;;20.83;58.44;97964.13;4946258;28;20319;-70
2021/11/15 01:30:35;;;;;;;5.67;4.60;;;;;;;20.80;58.29;97956.34;4986366;28;20238;-65
2021/11/15 01:33:01;;;;;;;7.70;4.77;;;;;;;20.83;58.57;97965.78;4956837;28;20629;-65
2021/11/15 01:35:28;;;;;;;6.07;5.10;;;;;;;20.91;58.38;97980.63;4957027;28;20236;-69
2021/11/15 01:37:55;;;;;;;7.73;5.13;;;;;;;20.28;58.18;97873.38;4956008;28;20235;-67
2021/11/15 01:40:24;;;;;;;8.73;5.13;;;;;;;20.67;58.44;97943.03;4957656;28;20262;-68
2021/11/15 01:42:51;;;;;;;6.67;4.70;;;;;;;20.87;58.51;97975.34;4971890;28;20234;-66
2021/11/15 01:45:23;;;;;;;6.10;4.47;;;;;;;20.73;58.43;97954.38;4957442;28;20210;-67
2021/11/15 01:47:51;;;;;;;7.00;5.00;;;;;;;20.88;58.31;97979.63;4958283;28;20239;-66
2021/11/15 01:50:19;;;;;;;7.23;4.90;;;;;;;20.91;58.24;97989.97;4956865;28;20202;-68
2021/11/15 01:52:45;;;;;;;8.70;5.13;;;;;;;20.53;58.32;97923.72;4987816;28;20534;-66
2021/11/15 01:55:12;;;;;;;6.63;5.03;;;;;;;20.93;58.28;97993.47;4956897;28;20212;-65
2021/11/15 01:57:40;;;;;;;6.10;4.80;;;;;;;20.88;58.30;97980.50;4972237;28;20282;-70
2021/11/15 02:00:10;;;;;;;5.43;4.63;;;;;;;20.84;58.32;97970.09;4952761;28;20269;-67
2021/11/15 02:02:36;;;;;;;5.33;4.40;;;;;;;20.79;58.32;97969.06;4953965;28;20275;-65
2021/11/15 02:05:04;;;;;;;7.20;5.47;;;;;;;20.80;58.43;97960.56;4970554;28;20579;-65
2021/11/15 02:07:30;;;;;;;5.73;5.17;;;;;;;20.79;58.19;97957.16;4971468;28;20742;-65
2021/11/15 02:09:57;;;;;;;6.83;4.80;;;;;;;20.04;58.37;97826.44;4955477;28;20226;-69
2021/11/15 02:12:27;;;;;;;7.90;5.17;;;;;;;20.93;58.45;97981.53;4956148;28;20738;-67
2021/11/15 02:14:53;;;;;;;8.07;4.83;;;;;;;20.66;58.55;97928.53;4972164;28;20637;-66
2021/11/15 02:17:20;;;;;;;6.70;4.90;;;;;;;20.07;58.73;97839.31;4972349;28;20617;-66
2021/11/15 02:19:47;;;;;;;5.90;5.03;;;;;;;20.79;58.65;97962.28;4971133;28;20207;-68
2021/11/15 02:22:14;;;;;;;7.00;4.93;;;;;;;20.88;58.26;97974.50;4955972;28;20221;-66
2021/11/15 02:24:43;;;;;;;6.07;5.07;;;;;;;20.91;58.50;97983.19;4956380;28;20217;-66
2021/11/15 02:27:10;;;;;;;6.80;4.93;;;;;;;20.87;58.58;97972.78;4979143;28;20274;-66
2021/11/15 02:29:38;;;;;;;8.97;5.53;;;;;;;20.91;58.27;97980.63;4956863;28;20281;-67
2021/11/15 02:32:07;;;;;;;5.23;4.70;;;;;;;20.92;58.39;97981.47;4955264;28;20211;-65
2021/11/15 02:34:34;;;;;;;7.13;4.87;;;;;;;20.90;58.22;97968.66;4974629;28;20665;-68
2021/11/15 02:37:00;;;;;;;6.30;5.07;;;;;;;20.71;57.97;97932.09;4965797;28;20238;-65
2021/11/15 02:39:27;;;;;;;6.03;4.83;;;;;;;20.91;58.70;97967.84;4990562;28;20222;-65
2021/11/15 02:41:54;;;;;;;6.73;5.37;;;;;;;20.82;58.23;97948.72;4959470;28;20607;-65
2021/11/15 02:44:20;;;;;;;7.40;4.93;;;;;;;20.91;58.59;97961.84;4954899;28;20207;-66
2021/11/15 02:46:47;;;;;;;5.60;4.53;;;;;;;20.85;58.25;97944.63;4972336;28;20662;-64
2021/11/15 02:49:14;;;;;;;8.23;5.13;;;;;;;20.91;58.10;97946.53;4958901;28;20293;-67
2021/11/15 02:51:40;;;;;;;7.67;5.20;;;;;;;20.74;58.24;97920.34;4974946;28;20203;-68
2021/11/15 02:54:07;;;;;;;6.97;5.13;;;;;;;20.78;58.20;97919.63;4973812;28;20238;-66
2021/11/15 02:56:35;;;;;;;5.97;4.93;;;;;;;20.87;58.19;97925.09;4959060;28;20664;-66
2021/11/15 02:59:02;;;;;;;6.83;5.23;;;;;;;20.67;58.28;97891.94;4959131;28;20271;-68
2021/11/15 03:01:30;;;;;;;5.93;5.00;;;;;;;20.91;58.19;97931.19;4966215;28;20254;-68
2021/11/15 03:03:57;;;;;;;5.73;5.10;;;;;;;20.91;58.32;97929.53;4958841;28;20524;-66
2021/11/15 03:06:23;;;;;;;5.63;4.57;;;;;;;20.79;58.11;97902.63;4958571;28;20627;-68
2021/11/15 03:08:50;;;;;;;5.67;5.17;;;;;;;20.68;58.26;97886.03;4958038;28;20226;-65
2021/11/15 03:11:17;;;;;;;5.90;5.20;;;;;;;20.81;58.33;97906.13;4989691;28;20277;-68
2021/11/15 03:13:45;;;;;;;5.80;5.03;;;;;;;20.91;58.22;97926.97;4973516;28;20226;-66
2021/11/15 03:16:12;;;;;;;5.73;5.13;;;;;;;20.69;58.42;97880.13;4958994;28;20206;-67
2021/11/15 03:18:40;;;;;;;5.97;5.03;;;;;;;20.84;58.17;97911.34;4959022;28;20606;-69
2021/11/15 03:21:12;;;;;;;6.07;5.33;;;;;;;20.91;58.25;97919.31;4962082;28;20211;-66
2021/11/15 03:23:41;;;;;;;7.40;5.30;;;;;;;20.90;58.39;97912.44;4974030;28;20211;-68
2021/11/15 03:26:08;;;;;;;7.47;5.57;;;;;;;20.90;58.31;97917.53;4982139;28;20443;-64
2021/11/15 03:28:38;;;;;;;6.53;5.43;;;;;;;20.85;58.54;97907.97;4968196;28;20281;-66
2021/11/15 03:31:09;;;;;;;6.90;5.57;;;;;;;20.90;58.49;97927.75;4966686;28;20620;-66
2021/11/15 03:33:36;;;;;;;5.80;5.17;;;;;;;20.90;58.20;97922.66;4959297;28;20426;-66
2021/11/15 03:36:04;;;;;;;6.13;5.13;;;;;;;20.90;58.28;97922.66;4958200;28;20203;-68
2021/11/15 03:38:31;;;;;;;5.97;5.37;;;;;;;20.84;58.32;97909.66;4973638;28;20235;-69
2021/11/15 03:40:58;;;;;;;5.80;5.20;;;;;;;20.86;58.38;97913.16;4957595;28;20661;-66
2021/11/15 03:43:25;;;;;;;6.60;5.03;;;;;;;20.85;58.33;97907.97;4958387;28;20723;-66
2021/11/15 03:45:51;;;;;;;6.10;5.40;;;;;;;20.83;58.11;97909.59;4988574;28;20582;-66
2021/11/15 03:48:20;;;;;;;6.37;5.43;;;;;;;20.90;58.34;97919.25;4958582;28;20664;-66
2021/11/15 03:50:48;;;;;;;6.30;5.37;;;;;;;20.90;58.25;97921.81;4958035;28;20249;-65
2021/11/15 03:53:14;;;;;;;5.30;4.80;;;;;;;20.90;58.37;97921.81;4958420;28;20230;-65
2021/11/15 03:55:41;;;;;;;5.60;4.70;;;;;;;20.90;58.29;97916.69;4973255;28;20218;-65
2021/11/15 03:58:08;;;;;;;5.30;4.70;;;;;;;20.86;58.16;97922.47;4955984;28;20287;-67
2021/11/15 04:00:36;;;;;;;5.53;4.87;;;;;;;20.06;58.11;97781.47;4954776;28;20199;-66
2021/11/15 04:03:04;;;;;;;6.50;5.50;;;;;;;20.90;58.41;97927.75;4956829;28;20211;-67
2021/11/15 04:05:33;;;;;;;5.77;5.00;;;;;;;20.89;58.18;97933.69;4958138;28;20214;-69
2021/11/15 04:08:02;;;;;;;5.93;5.33;;;;;;;20.90;58.35;97932.03;4972839;28;20231;-66
2021/11/15 04:10:32;;;;;;;5.33;4.83;;;;;;;20.76;58.37;97908.50;4973951;28;20712;-69
2021/11/15 04:13:02;;;;;;;6.43;5.73;;;;;;;20.11;58.05;97790.19;4958281;28;20215;-65
2021/11/15 04:15:29;;;;;;;6.37;5.47;;;;;;;20.76;58.27;97912.72;4972778;28;20262;-65
2021/11/15 04:17:55;;;;;;;5.63;4.90;;;;;;;20.02;58.26;97778.72;4960233;28;20234;-69
2021/11/15 04:20:23;;;;;;;6.80;5.60;;;;;;;20.83;58.04;97922.34;4973132;28;20277;-66
2021/11/15 04:22:49;;;;;;;5.97;5.37;;;;;;;20.90;58.32;97943.09;4990515;28;20211;-67
2021/11/15 04:25:16;;;;;;;6.87;5.60;;;;;;;20.76;58.09;97908.50;4958429;28;20720;-68
2021/11/15 04:27:43;;;;;;;7.20;5.97;;;;;;;20.02;58.14;97784.72;4954877;28;20231;-66
2021/11/15 04:30:12;;;;;;;6.80;5.50;;;;;;;20.65;58.26;97897.00;4958461;28;20281;-65
2021/11/15 04:32:40;;;;;;;7.87;5.30;;;;;;;20.89;58.32;97936.25;4958692;28;20207;-67
2021/11/15 04:35:08;;;;;;;6.87;5.60;;;;;;;20.89;58.01;97940.47;4968361;28;20546;-65
2021/11/15 04:37:35;;;;;;;5.93;5.00;;;;;;;20.89;58.23;97940.47;4958403;28;20758;-67
2021/11/15 04:40:03;;;;;;;7.27;5.70;;;;;;;20.90;58.25;97937.97;4973595;28;20207;-65
2021/11/15 04:42:29;;;;;;;5.80;4.97;;;;;;;20.89;58.29;97936.25;4975255;28;20199;-66
2021/11/15 04:44:56;;;;;;;5.70;4.80;;;;;;;20.84;58.52;97926.69;4993397;28;20269;-66
2021/11/15 04:47:23;;;;;;;5.70;5.10;;;;;;;20.89;58.34;97933.69;4962870;28;20877;-66
2021/11/15 04:49:49;;;;;;;7.00;5.60;;;;;;;20.83;58.09;97925.81;4961672;28;20218;-70
2021/11/15 04:52:16;;;;;;;6.53;5.40;;;;;;;20.80;58.18;97919.69;4962767;28;20578;-66
2021/11/15 04:54:43;;;;;;;7.37;5.60;;;;;;;20.84;57.83;97921.56;4977786;28;20211;-66
2021/11/15 04:57:10;;;;;;;6.30;5.70;;;;;;;20.74;58.51;97905.00;4961872;28;20277;-68
2021/11/15 04:59:36;;;;;;;6.73;5.60;;;;;;;20.16;58.33;97808.25;4968483;28;20546;-66
2021/11/15 05:02:03;;;;;;;5.33;4.77;;;;;;;20.67;58.05;97891.94;4961588;28;20199;-65
2021/11/15 05:04:30;;;;;;;6.40;5.73;;;;;;;20.86;58.34;97925.91;4993593;28;20643;-67
2021/11/15 05:06:57;;;;;;;6.20;4.97;;;;;;;20.90;58.10;97935.44;4993482;28;20230;-66
2021/11/15 05:09:24;;;;;;;6.00;5.30;;;;;;;20.81;57.91;97922.31;4977508;28;20285;-65
2021/11/15 05:11:50;;;;;;;6.73;5.47;;;;;;;20.90;58.39;97934.59;4961421;28;20277;-66
2021/11/15 05:14:17;;;;;;;6.10;5.50;;;;;;;20.76;58.26;97900.84;4958867;28;20295;-68
2021/11/15 05:16:44;;;;;;;6.40;5.60;;;;;;;20.83;58.18;97925.81;4959715;28;20207;-66
2021/11/15 05:19:10;;;;;;;6.37;5.73;;;;;;;20.81;57.94;97921.47;4977110;28;20246;-68
2021/11/15 05:21:37;;;;;;;6.50;5.30;;;;;;;20.90;58.07;97940.53;4961074;28;20293;-65
2021/11/15 05:24:04;;;;;;;6.13;5.40;;;;;;;20.76;57.84;97911.06;4961162;28;20199;-68
2021/11/15 05:26:31;;;;;;;7.80;5.93;;;;;;;20.91;57.99;97952.53;4959800;28;20214;-65
2021/11/15 05:28:57;;;;;;;6.77;5.90;;;;;;;20.62;58.01;97899.44;4992366;28;20250;-65
2021/11/15 05:31:24;;;;;;;6.23;5.63;;;;;;;20.91;58.05;97952.53;4963195;28;20207;-69
2021/11/15 05:33:51;;;;;;;5.77;5.17;;;;;;;20.68;58.24;97912.44;4991658;28;20661;-66
2021/11/15 05:36:18;;;;;;;6.20;5.60;;;;;;;20.92;58.19;97950.81;4975811;28;20203;-67
2021/11/15 05:38:44;;;;;;;5.70;5.10;;;;;;;20.93;58.14;97945.75;4976390;28;20227;-66
2021/11/15 05:41:11;;;;;;;5.97;5.37;;;;;;;20.14;58.12;97820.94;4958259;28;20748;-66
2021/11/15 05:43:38;;;;;;;7.20;5.43;;;;;;;20.01;58.33;97787.19;4957806;28;20302;-66
2021/11/15 05:46:05;;;;;;;6.73;5.93;;;;;;;20.95;57.95;97954.41;4973729;28;20238;-68
2021/11/15 05:48:31;;;;;;;6.67;5.67;;;;;;;20.85;58.22;97929.28;4960656;28;20227;-67
2021/11/15 05:50:58;;;;;;;6.57;5.60;;;;;;;20.94;58.21;97947.53;4975134;28;20219;-65
2021/11/15 05:53:25;;;;;;;6.03;5.40;;;;;;;20.89;58.15;97933.69;4957826;28;20218;-65
2021/11/15 05:55:51;;;;;;;6.67;5.97;;;;;;;20.14;58.11;97804.75;4959178;28;20199;-70
2021/11/15 05:58:18;;;;;;;6.00;5.40;;;;;;;20.74;57.86;97910.13;4975875;28;20289;-66
2021/11/15 06:00:45;;;;;;;7.63;5.93;;;;;;;20.62;57.95;97881.56;4977167;28;20576;-65
2021/11/15 06:03:12;;;;;;;6.33;5.67;;;;;;;20.77;58.30;97905.13;4975875;28;20405;-66
2021/11/15 06:05:39;;;;;;;6.20;5.60;;;;;;;20.84;58.53;97922.41;4992067;28;20583;-65
2021/11/15 06:08:06;;;;;;;6.23;5.60;;;;;;;20.92;58.02;97944.03;4979601;28;20230;-67
2021/11/15 06:10:32;;;;;;;7.17;5.33;;;;;;;20.56;58.05;97883.88;4960445;28;20700;-66
2021/11/15 06:12:59;;;;;;;6.90;5.70;;;;;;;20.95;58.10;97943.31;4991822;28;20215;-72
2021/11/15 06:15:26;;;;;;;6.93;6.00;;;;;;;20.95;57.98;97951.84;4990951;28;20656;-64
2021/11/15 06:17:52;;;;;;;6.70;5.63;;;;;;;20.94;58.00;97955.19;4993187;28;20289;-64
2021/11/15 06:20:19;;;;;;;6.63;5.97;;;;;;;20.95;57.88;97950.97;4976254;28;20261;-67
2021/11/15 06:22:46;;;;;;;8.43;5.73;;;;;;;20.89;57.96;97945.59;4976100;28;20810;-66
2021/11/15 06:25:14;;;;;;;6.93;6.00;;;;;;;20.86;57.81;97938.69;4976307;28;20211;-66
2021/11/15 06:27:40;;;;;;;6.30;5.70;;;;;;;20.85;58.02;97939.50;4991340;28;20242;-65
2021/11/15 06:30:08;;;;;;;7.00;6.10;;;;;;;20.93;57.65;97953.44;4991710;28;20224;-65
2021/11/15 06:32:35;;;;;;;13.87;10.37;;;;;;;20.92;55.74;97959.38;4991254;28;20230;-65
2021/11/15 06:35:02;;;;;;;14.20;10.57;;;;;;;20.92;54.47;97953.38;4986962;28;20291;-66
2021/11/15 06:37:29;;;;;;;17.23;12.17;;;;;;;20.90;53.55;97949.91;4991571;28;20250;-65
2021/11/15 06:39:55;;;;;;;16.93;12.20;;;;;;;20.90;52.79;97962.69;4992516;28;20230;-65
2021/11/15 06:42:22;;;;;;;18.93;12.17;;;;;;;20.08;52.87;97822.34;4993305;28;20664;-67
2021/11/15 06:44:49;;;;;;;15.53;11.50;;;;;;;20.84;53.38;97945.41;4988949;28;20195;-69
2021/11/15 06:47:16;;;;;;;16.40;12.17;;;;;;;20.87;53.45;97950.63;4991191;28;20314;-65
2021/11/15 06:49:42;;;;;;;15.03;11.83;;;;;;;20.87;53.78;97963.41;4991639;28;20253;-69
2021/11/15 06:52:10;;;;;;;16.77;11.13;;;;;;;20.81;54.00;97949.56;4989779;28;20199;-64
2021/11/15 06:54:36;;;;;;;13.93;11.03;;;;;;;20.88;54.42;97959.19;4974265;28;20199;-66
2021/11/15 06:57:03;;;;;;;13.80;11.17;;;;;;;20.33;54.61;97882.09;4991160;28;20226;-71
2021/11/15 06:59:30;;;;;;;14.00;11.57;;;;;;;20.87;55.05;97958.31;4970710;28;20234;-66
2021/11/15 07:01:56;;;;;;;12.67;10.53;;;;;;;20.88;54.90;97960.06;4991292;28;20222;-65
2021/11/15 07:04:23;;;;;;;15.63;11.10;;;;;;;20.87;55.14;97958.31;4990875;28;20230;-66
2021/11/15 07:06:50;;;;;;;14.73;11.17;;;;;;;20.24;54.93;97851.09;4990842;28;20226;-67
2021/11/15 07:09:17;;;;;;;12.23;9.93;;;;;;;20.88;55.21;97956.63;4991433;28;20759;-65
2021/11/15 07:11:44;;;;;;;13.37;10.13;;;;;;;20.88;55.21;97965.19;4991505;28;20253;-69
2021/11/15 07:14:10;;;;;;;13.63;10.37;;;;;;;20.88;55.25;97970.28;4990508;28;20306;-68
2021/11/15 07:16:37;;;;;;;14.60;10.13;;;;;;;20.65;55.18;97930.19;4990666;28;20278;-65
2021/11/15 07:19:04;;;;;;;11.63;9.57;;;;;;;20.81;55.22;97958.06;4989333;28;20215;-67
2021/11/15 07:21:31;;;;;;;12.37;10.13;;;;;;;20.85;55.20;97977.84;4974701;28;20553;-66
2021/11/15 07:23:57;;;;;;;11.23;9.33;;;;;;;20.89;54.95;97982.25;4991163;28;20226;-65
2021/11/15 07:26:24;;;;;;;11.17;9.93;;;;;;;20.70;55.47;97941.47;4990971;28;20199;-64
2021/11/15 07:28:51;;;;;;;13.30;9.77;;;;;;;20.89;55.34;97981.34;4954263;28;20301;-62
2021/11/15 07:31:17;;;;;;;13.07;9.63;;;;;;;20.89;55.58;97982.25;4973842;28;20215;-66
2021/11/15 07:33:44;;;;;;;10.13;8.73;;;;;;;20.88;55.67;97979.63;4989588;28;20203;-65
2021/11/15 07:36:11;;;;;;;11.63;9.57;;;;;;;20.87;55.66;97976.19;4990216;28;20199;-65
2021/11/15 07:38:37;;;;;;;11.90;9.57;;;;;;;20.66;55.78;97941.28;4990627;28;20277;-63
2021/11/15 07:41:04;;;;;;;11.87;9.53;;;;;;;20.81;55.81;97975.09;4989489;28;20250;-66
2021/11/15 07:43:31;;;;;;;12.53;9.47;;;;;;;20.89;55.52;97994.13;4958625;28;20289;-65
2021/11/15 07:45:59;;;;;;;10.13;8.90;;;;;;;20.88;55.53;97995.84;4972611;28;20261;-65
2021/11/15 07:48:29;;;;;;;11.03;8.53;;;;;;;20.89;55.73;97989.91;4957949;28;20234;-65
2021/11/15 07:50:57;;;;;;;12.50;8.50;;;;;;;20.85;55.89;97982.94;4974406;28;20230;-65
2021/11/15 07:53:24;;;;;;;9.97;8.33;;;;;;;20.71;56.08;97955.97;4954574;28;20271;-65
2021/11/15 07:55:51;;;;;;;14.33;8.63;;;;;;;20.71;56.04;97958.53;4956477;28;20211;-65
2021/11/15 07:58:18;;;;;;;9.93;7.63;;;;;;;20.88;55.94;97995.84;4970902;28;20219;-65
2021/11/15 08:00:44;;;;;;;11.57;8.90;;;;;;;20.90;56.01;98001.84;4980463;28;20617;-65
2021/11/15 08:03:11;;;;;;;11.03;8.77;;;;;;;19.98;55.53;97868.72;4990470;28;20652;-65
2021/11/15 08:05:38;;;;;;;10.00;8.60;;;;;;;20.86;55.59;97997.44;4990618;28;20195;-65
2021/11/15 08:08:05;;;;;;;11.47;9.20;;;;;;;20.89;54.74;97997.56;4989992;28;20273;-65
2021/11/15 08:10:31;;;;;;;18.93;9.43;;;;;;;20.80;54.84;97973.34;4973295;28;20214;-68
2021/11/15 08:12:58;;;;;;;12.70;9.33;;;;;;;20.84;54.79;97986.28;4988473;28;20198;-65
2021/11/15 08:15:26;;;;;;;11.67;9.47;;;;;;;20.04;54.48;97864.72;4986284;28;20253;-65
2021/11/15 08:17:54;;;;;;;10.53;8.63;;;;;;;20.88;54.81;98011.16;4993011;28;20210;-66
2021/11/15 08:20:26;;;;;;;11.70;8.83;;;;;;;20.89;54.70;98019.69;4996796;28;20278;-66
2021/11/15 08:22:55;;;;;;;13.73;9.97;;;;;;;20.85;54.47;98005.94;4980810;28;20238;-66
2021/11/15 08:25:24;;;;;;;15.73;9.97;;;;;;;20.87;54.49;98014.50;4996108;28;20913;-65
2021/11/15 08:27:51;;;;;;;10.03;8.87;;;;;;;20.87;54.62;98009.41;4996568;28;20577;-65
2021/11/15 08:30:18;;;;;;;11.30;9.43;;;;;;;20.88;54.54;98023.06;4996837;28;20257;-65
2021/11/15 08:36:23;;;;;;;10.17;8.27;;;;;;;20.87;55.05;98026.44;4989133;28;20253;-66
2021/11/15 08:38:55;;;;;;;11.37;9.17;;;;;;;20.86;54.97;98009.34;4996261;28;20254;-62
2021/11/15 08:41:24;;;;;;;10.87;9.13;;;;;;;20.71;55.26;97995.97;4996386;28;20657;-68
2021/11/15 08:43:52;;;;;;;10.10;8.43;;;;;;;20.82;55.46;98010.03;4995735;28;20233;-65
2021/11/15 08:46:19;;;;;;;11.13;9.07;;;;;;;20.86;55.12;98006.78;4994613;28;20538;-65
2021/11/15 08:48:46;;;;;;;11.23;9.07;;;;;;;20.87;55.52;98016.22;4996283;28;20230;-65
2021/11/15 08:51:14;;;;;;;8.27;7.33;;;;;;;20.87;55.45;98006.84;4995690;28;20308;-65
2021/11/15 08:53:41;;;;;;;9.90;7.70;;;;;;;20.88;55.67;98007.72;4984071;28;20192;-65
2021/11/15 08:56:08;;;;;;;10.53;8.37;;;;;;;20.88;55.60;98006.06;4995974;28;20230;-65
2021/11/15 08:58:35;;;;;;;9.97;8.33;;;;;;;20.78;55.57;97991.16;4995013;28;20214;-65
2021/11/15 09:01:02;;;;;;;9.70;8.00;;;;;;;20.88;55.68;98008.59;4985754;28;20230;-64
2021/11/15 09:03:29;;;;;;;9.20;8.00;;;;;;;20.85;55.65;98000.81;4995352;28;20254;-66
2021/11/15 09:05:55;;;;;;;10.20;8.37;;;;;;;20.90;55.63;98011.22;4994851;28;20711;-65
2021/11/15 09:08:22;;;;;;;8.73;7.83;;;;;;;20.90;55.74;98006.13;4994665;28;20258;-65
2021/11/15 09:10:50;;;;;;;8.97;8.00;;;;;;;20.91;55.67;98007.84;4993016;28;20310;-68
2021/11/15 09:13:16;;;;;;;8.73;7.67;;;;;;;20.91;55.56;98008.72;4993571;28;20222;-67
2021/11/15 09:15:43;;;;;;;10.27;7.57;;;;;;;20.91;55.63;98005.28;4993224;28;20226;-66
2021/11/15 09:18:09;;;;;;;8.83;7.60;;;;;;;20.90;55.41;98001.84;4994376;28;21100;-70
2021/11/15 09:20:36;;;;;;;8.10;6.93;;;;;;;20.87;55.69;97998.34;4994677;28;20723;-66
2021/11/15 09:23:02;;;;;;;9.23;7.63;;;;;;;20.92;55.52;98000.25;4994495;28;20664;-66
2021/11/15 09:25:29;;;;;;;8.37;7.47;;;;;;;20.92;55.65;97999.34;4994456;28;20199;-67
2021/11/15 09:27:56;;;;;;;10.03;7.77;;;;;;;20.91;55.90;97995.97;4992596;28;20657;-68
2021/11/15 09:30:23;;;;;;;12.37;8.10;;;;;;;20.92;54.90;98009.56;4973685;28;20223;-66
2021/11/15 09:32:50;;;;;;;9.27;8.00;;;;;;;20.92;54.92;98014.69;4963012;28;20211;-66
2021/11/15 09:35:16;;;;;;;10.93;7.97;;;;;;;20.92;55.06;98022.34;4958766;28;20215;-67
2021/11/15 09:37:45;;;;;;;9.20;8.23;;;;;;;20.87;55.35;98019.63;4958771;28;20223;-66
2021/11/15 09:40:11;;;;;;;9.00;7.67;;;;;;;20.88;54.95;98023.06;4959089;28;20214;-65
2021/11/15 09:42:38;;;;;;;8.80;7.80;;;;;;;20.63;55.21;97977.78;4963110;28;20261;-65
2021/11/15 09:45:07;;;;;;;8.07;7.27;;;;;;;20.84;55.33;98008.44;4968160;28;20203;-69
2021/11/15 09:47:36;;;;;;;9.07;7.73;;;;;;;20.91;55.63;98016.41;4958951;28;20231;-65
2021/11/15 09:50:09;;;;;;;10.17;8.07;;;;;;;20.89;55.33;98018.00;4976018;28;20241;-66
2021/11/15 09:52:36;;;;;;;9.40;7.67;;;;;;;20.92;55.35;98018.13;4960343;28;20262;-66
2021/11/15 09:55:04;;;;;;;7.80;7.00;;;;;;;20.88;55.69;98008.59;4959128;28;20203;-67
2021/11/15 09:57:35;;;;;;;8.73;7.40;;;;;;;20.92;55.54;98015.56;4958764;28;20308;-65
2021/11/15 10:00:03;;;;;;;8.37;7.40;;;;;;;20.92;55.74;98013.03;4957211;28;20203;-65
2021/11/15 10:02:30;;;;;;;9.03;7.10;;;;;;;20.92;55.67;98004.47;4954198;28;20211;-68
2021/11/15 10:04:57;;;;;;;8.67;7.23;;;;;;;20.84;55.62;97996.50;4957440;28;20253;-65
2021/11/15 10:07:38;;;;;;;8.50;7.07;;;;;;;20.89;55.61;97997.56;4957240;28;20252;-65
2021/11/15 10:10:45;;;;;;;7.63;6.80;;;;;;;20.92;55.63;98004.47;4957139;28;20261;-65
2021/11/15 10:13:16;;;;;;;8.63;7.30;;;;;;;20.87;55.62;98001.75;4977131;28;20266;-64
2021/11/15 10:16:12;;;;;;;8.27;7.33;;;;;;;20.92;55.56;98009.56;4965116;28;20207;-70
2021/11/15 10:18:52;;;;;;;8.37;7.27;;;;;;;20.91;55.24;98013.84;4988995;28;20222;-65
2021/11/15 10:21:23;;;;;;;8.30;7.33;;;;;;;20.92;55.56;98017.25;4968566;28;20207;-68
2021/11/15 10:23:54;;;;;;;8.97;7.27;;;;;;;20.91;55.64;98000.19;4972125;28;20222;-66
2021/11/15 10:26:30;;;;;;;7.93;6.90;;;;;;;20.91;55.53;98000.19;4955796;28;20208;-64
2021/11/15 10:29:01;;;;;;;8.53;7.60;;;;;;;20.65;55.48;97958.28;4962333;28;20230;-65
2021/11/15 10:31:34;;;;;;;12.80;10.77;;;;;;;20.89;52.67;98002.69;4957048;28;20230;-65
2021/11/15 10:34:04;;;;;;;12.97;10.77;;;;;;;20.88;52.26;97998.38;4989594;28;20261;-70
2021/11/15 10:36:45;;;;;;;12.03;10.07;;;;;;;20.71;52.60;97972.97;4989017;28;20194;-67
2021/11/15 10:39:11;;;;;;;11.57;9.97;;;;;;;20.87;53.21;97991.53;4988952;28;20253;-65
2021/11/15 10:41:38;;;;;;;11.27;10.00;;;;;;;20.88;53.13;97997.50;4989494;28;20625;-66
2021/11/15 10:44:09;;;;;;;13.47;10.17;;;;;;;20.73;53.70;97967.13;4988185;28;20269;-66
2021/11/15 10:46:36;;;;;;;14.07;9.70;;;;;;;20.87;53.95;97988.97;4987649;28;20195;-66
2021/11/15 10:49:05;;;;;;;22.23;9.97;;;;;;;20.87;53.89;97994.06;4988401;28;20219;-66
2021/11/15 10:52:00;;;;;;;12.50;9.17;;;;;;;20.87;53.96;97996.63;4989383;28;20223;-64
2021/11/15 10:54:28;;;;;;;12.87;9.43;;;;;;;20.79;54.20;97979.25;4986915;28;20222;-66
2021/11/15 10:56:56;;;;;;;15.93;9.03;;;;;;;20.85;54.21;97988.06;4982162;28;20281;-65
2021/11/15 10:59:23;;;;;;;11.73;8.90;;;;;;;20.88;54.29;97988.16;4983428;28;20630;-70
2021/11/15 11:01:50;;;;;;;13.73;9.70;;;;;;;20.88;54.50;97990.72;4987778;28;20230;-67
2021/11/15 11:04:23;;;;;;;16.10;9.90;;;;;;;20.88;54.67;97980.50;4988132;28;20214;-66
2021/11/15 11:07:05;;;;;;;14.30;8.63;;;;;;;20.89;54.63;97971.13;4987232;28;20227;-69
2021/11/15 11:09:39;;;;;;;13.50;9.20;;;;;;;20.91;54.82;97972.06;4989221;28;20234;-65
2021/11/15 11:12:14;;;;;;;16.53;9.47;;;;;;;20.86;55.11;97965.91;4989557;28;20269;-65
2021/11/15 11:14:43;;;;;;;13.03;9.77;;;;;;;20.75;54.89;97946.75;4987424;28;20234;-65
2021/11/15 11:17:09;;;;;;;10.33;8.37;;;;;;;20.91;55.02;97969.53;4984833;28;20202;-65
2021/11/15 11:20:07;;;;;;;11.07;8.43;;;;;;;20.92;55.11;97981.47;4989311;28;20230;-65
2021/11/15 11:27:30;;;;;;;14.80;9.07;;;;;;;20.91;55.20;97964.41;4988752;28;20246;-65
2021/11/15 11:29:57;;;;;;;11.93;8.53;;;;;;;20.91;55.22;97961.84;4990198;28;20199;-67
2021/11/15 11:32:26;;;;;;;10.57;7.77;;;;;;;20.87;55.40;97954.91;4989094;28;20247;-65
2021/11/15 11:34:55;;;;;;;10.90;8.50;;;;;;;20.89;55.39;97954.13;4964460;28;20327;-65
2021/11/15 11:37:25;;;;;;;10.17;7.83;;;;;;;20.91;55.40;97954.19;4988271;28;20572;-69
2021/11/15 11:39:51;;;;;;;11.70;8.47;;;;;;;20.90;55.35;97955.03;4987513;28;20222;-65
2021/11/15 11:42:19;;;;;;;11.30;8.13;;;;;;;20.87;55.39;97947.22;4988748;28;20278;-66